Time;durP1;ratioP1;P1;durP2;ratioP2;P2;SDS_P1;SDS_P2;PMS_P1;PMS_P2;Temp;Humidity;BMP_temperature;BMP_pressure;BME280_temperature;BME280_humidity;BME280_pressure;Samples;Min_cycle;Max_cycle;Signal;HPM_P1;HPM_P2
2022/08/11 00:00:11;;;;;;;0.30;0.30;;;;;;;-148.56;100.00;61375.16;4948085;28;20038;-29
2022/08/11 00:02:48;;;;;;;0.22;0.22;;;;;;;-148.56;100.00;61375.16;4943148;28;20018;-30
2022/08/11 00:05:14;;;;;;;0.88;0.20;;;;;;;-148.56;100.00;61375.16;4940098;28;20053;-28
2022/08/11 00:07:42;;;;;;;0.28;0.28;;;;;;;-148.56;100.00;61375.16;4928088;28;21087;-31
2022/08/11 00:10:12;;;;;;;0.30;0.30;;;;;;;-148.56;100.00;61375.16;4943830;28;20039;-25
2022/08/11 00:12:37;;;;;;;1.42;0.32;;;;;;;-148.56;100.00;61375.16;4950312;28;20026;-29
2022/08/11 00:15:03;;;;;;;0.30;0.30;;;;;;;-148.56;100.00;61375.16;4943403;28;21020;-26
2022/08/11 00:17:30;;;;;;;0.30;0.28;;;;;;;-148.56;100.00;61375.16;4945314;28;20076;-28
2022/08/11 00:20:14;;;;;;;0.35;0.35;;;;;;;-148.56;100.00;61375.16;4944208;28;20057;-27
2022/08/11 00:22:40;;;;;;;0.28;0.28;;;;;;;-148.56;100.00;61375.16;4933032;28;20038;-24
2022/08/11 00:25:10;;;;;;;0.40;0.40;;;;;;;-148.56;100.00;61375.16;4944745;28;20032;-30
2022/08/11 00:27:36;;;;;;;0.28;0.28;;;;;;;-148.56;100.00;61375.16;4943449;28;22475;-28
2022/08/11 00:30:04;;;;;;;0.30;0.30;;;;;;;-148.56;100.00;61375.16;4948172;28;20062;-27
2022/08/11 00:32:29;;;;;;;0.22;0.22;;;;;;;-148.56;100.00;61375.16;4947556;28;20073;-27
2022/08/11 00:34:55;;;;;;;0.40;0.40;;;;;;;-148.56;100.00;61375.16;4948155;28;20062;-28
2022/08/11 00:37:20;;;;;;;0.40;0.30;;;;;;;-148.56;100.00;61375.16;4932441;28;20572;-31
2022/08/11 00:39:48;;;;;;;0.30;0.30;;;;;;;-148.56;100.00;61375.16;4931961;28;20034;-28
2022/08/11 00:42:14;;;;;;;0.30;0.30;;;;;;;-148.56;100.00;61375.16;4946042;28;21137;-29
2022/08/11 00:44:45;;;;;;;0.20;0.20;;;;;;;-148.56;100.00;61375.16;4951107;28;20110;-28
2022/08/11 00:47:33;;;;;;;0.40;0.40;;;;;;;-148.56;100.00;61375.16;4945070;28;20064;-29
2022/08/11 00:50:35;;;;;;;0.30;0.30;;;;;;;-148.56;100.00;61375.16;4947706;28;20299;-29
2022/08/11 00:53:25;;;;;;;0.30;0.30;;;;;;;-148.56;100.00;61375.16;4944500;28;20748;-29
2022/08/11 00:56:09;;;;;;;0.32;0.20;;;;;;;-148.56;100.00;61375.16;4946351;28;20084;-27
2022/08/11 00:58:46;;;;;;;0.28;0.25;;;;;;;-148.56;100.00;61375.16;4949343;28;20038;-28
2022/08/11 01:01:14;;;;;;;0.30;0.30;;;;;;;-148.56;100.00;61375.16;4943523;28;20040;-26
2022/08/11 01:03:57;;;;;;;0.40;0.40;;;;;;;-148.56;100.00;61375.16;4949558;28;20065;-29
2022/08/11 01:07:00;;;;;;;0.30;0.30;;;;;;;-148.56;100.00;61375.16;4946477;28;20752;-27
2022/08/11 01:09:37;;;;;;;0.30;0.30;;;;;;;-148.56;100.00;61375.16;4948451;28;20749;-27
2022/08/11 01:12:06;;;;;;;0.30;0.20;;;;;;;-148.56;100.00;61375.16;4948134;28;20073;-29
2022/08/11 01:15:10;;;;;;;0.20;0.20;;;;;;;-148.56;100.00;61375.16;4945125;28;20053;-29
2022/08/11 01:17:41;;;;;;;0.20;0.20;;;;;;;-148.56;100.00;61375.16;4947696;28;20042;-29
2022/08/11 01:20:25;;;;;;;0.20;0.20;;;;;;;-148.56;100.00;61375.16;4950649;28;20034;-29
2022/08/11 01:23:10;;;;;;;0.30;0.30;;;;;;;-148.56;100.00;61375.16;4951275;28;20041;-31
2022/08/11 01:26:00;;;;;;;0.45;0.45;;;;;;;-148.56;100.00;61375.16;4945357;28;20825;-26
2022/08/11 01:28:41;;;;;;;0.20;0.20;;;;;;;-148.56;100.00;61375.16;4945129;28;21055;-29
2022/08/11 01:31:28;;;;;;;0.30;0.30;;;;;;;-148.56;100.00;61375.16;4948430;28;20558;-32
2022/08/11 01:34:31;;;;;;;0.20;0.20;;;;;;;-148.56;100.00;61375.16;4944459;28;20038;-29
2022/08/11 01:37:15;;;;;;;0.20;0.20;;;;;;;-148.56;100.00;61375.16;4951877;28;20034;-26
2022/08/11 01:39:55;;;;;;;0.38;0.30;;;;;;;-148.56;100.00;61375.16;4931682;28;20510;-31
2022/08/11 01:45:41;;;;;;;0.40;0.30;;;;;;;-148.56;100.00;61375.16;4949888;28;20124;-32
2022/08/11 01:48:27;;;;;;;0.30;0.30;;;;;;;-148.56;100.00;61375.16;4950495;28;20338;-27
2022/08/11 01:51:29;;;;;;;0.32;0.32;;;;;;;-148.56;100.00;61375.16;4966640;28;21620;-32
2022/08/11 01:54:04;;;;;;;0.30;0.30;;;;;;;-148.56;100.00;61375.16;4948466;28;20090;-32
2022/08/11 01:56:46;;;;;;;0.40;0.40;;;;;;;-148.56;100.00;61375.16;4946789;28;20156;-28
2022/08/11 01:59:25;;;;;;;0.52;0.28;;;;;;;-148.56;100.00;61375.16;4943299;28;20047;-29
2022/08/11 02:02:08;;;;;;;0.30;0.20;;;;;;;-148.56;100.00;61375.16;4945505;28;20109;-30
2022/08/11 02:04:44;;;;;;;0.55;0.32;;;;;;;-148.56;100.00;61375.16;4944119;28;20030;-25
2022/08/11 02:07:37;;;;;;;0.30;0.25;;;;;;;-148.56;100.00;61375.16;4946542;28;20045;-26
2022/08/11 02:13:39;;;;;;;0.30;0.30;;;;;;;-148.56;100.00;61375.16;4947025;28;20069;-30
2022/08/11 02:16:25;;;;;;;0.20;0.20;;;;;;;-148.56;100.00;61375.16;4950836;28;20133;-29
2022/08/11 02:24:49;;;;;;;0.57;0.30;;;;;;;-148.56;100.00;61375.16;4947232;28;20062;-34
2022/08/11 02:27:20;;;;;;;0.30;0.30;;;;;;;-148.56;100.00;61375.16;4932084;28;20034;-30
2022/08/11 02:30:03;;;;;;;0.20;0.20;;;;;;;-148.56;100.00;61375.16;4947547;28;20045;-32
2022/08/11 02:35:41;;;;;;;0.30;0.30;;;;;;;-148.56;100.00;61375.16;4945817;28;20045;-31
2022/08/11 02:38:31;;;;;;;0.43;0.30;;;;;;;-148.56;100.00;61375.16;4946533;28;20034;-31
2022/08/11 02:41:01;;;;;;;0.40;0.32;;;;;;;-148.56;100.00;61375.16;4948544;28;20132;-30
2022/08/11 02:43:44;;;;;;;0.32;0.30;;;;;;;-148.56;100.00;61375.16;4944945;28;20623;-27
2022/08/11 02:46:22;;;;;;;0.32;0.32;;;;;;;-148.56;100.00;61375.16;4932568;28;20035;-28
2022/08/11 02:52:14;;;;;;;0.30;0.30;;;;;;;-148.56;100.00;61375.16;4945173;28;20096;-26
2022/08/11 02:55:16;;;;;;;0.30;0.30;;;;;;;-148.56;100.00;61375.16;4945410;28;21186;-26
2022/08/11 02:58:02;;;;;;;0.20;0.20;;;;;;;-148.56;100.00;61375.16;4932061;28;20093;-30
2022/08/11 03:00:29;;;;;;;0.20;0.20;;;;;;;-148.56;100.00;61375.16;4949403;28;20063;-24
2022/08/11 03:03:08;;;;;;;0.30;0.30;;;;;;;-148.56;100.00;61375.16;4945958;28;22525;-29
2022/08/11 03:06:01;;;;;;;0.52;0.30;;;;;;;-148.56;100.00;61375.16;4947112;28;20130;-28
2022/08/11 03:08:51;;;;;;;0.20;0.20;;;;;;;-148.56;100.00;61375.16;4926927;28;20233;-28
2022/08/11 03:17:30;;;;;;;0.40;0.40;;;;;;;-148.56;100.00;61375.16;4945256;28;20096;-25
2022/08/11 03:20:20;;;;;;;0.30;0.30;;;;;;;-148.56;100.00;61375.16;4943086;28;20769;-25
2022/08/11 03:22:57;;;;;;;0.20;0.20;;;;;;;-148.56;100.00;61375.16;4944826;28;20060;-29
2022/08/11 03:25:41;;;;;;;0.30;0.30;;;;;;;-148.56;100.00;61375.16;4944162;28;20569;-29
2022/08/11 03:28:23;;;;;;;0.20;0.20;;;;;;;-148.56;100.00;61375.16;4947436;28;20080;-26
2022/08/11 03:30:53;;;;;;;;;;;;;;;-148.56;100.00;61375.16;4949319;28;20045;-32
2022/08/11 03:36:27;;;;;;;0.30;0.30;;;;;;;-148.56;100.00;61375.16;4946303;28;20045;-23
2022/08/11 03:39:06;;;;;;;0.32;0.20;;;;;;;-148.56;100.00;61375.16;4939777;28;20651;-25
2022/08/11 03:41:43;;;;;;;0.28;0.28;;;;;;;-148.56;100.00;61375.16;4953172;28;20044;-25
2022/08/11 03:44:29;;;;;;;0.30;0.30;;;;;;;-148.56;100.00;61375.16;4934560;28;20064;-27
2022/08/11 03:47:06;;;;;;;0.22;0.22;;;;;;;-148.56;100.00;61375.16;4934735;28;20030;-25
2022/08/11 03:49:38;;;;;;;0.32;0.30;;;;;;;-148.56;100.00;61375.16;4937979;28;20045;-30
2022/08/11 03:52:18;;;;;;;0.30;0.30;;;;;;;-148.56;100.00;61375.16;4939874;28;20121;-28
2022/08/11 03:54:56;;;;;;;0.32;0.30;;;;;;;-148.56;100.00;61375.16;4938580;28;20236;-25
2022/08/11 03:57:43;;;;;;;0.30;0.30;;;;;;;-148.56;100.00;61375.16;4939115;28;20770;-28
2022/08/11 04:00:27;;;;;;;0.20;0.20;;;;;;;-148.56;100.00;61375.16;4934086;28;20889;-27
2022/08/11 04:03:23;;;;;;;0.40;0.40;;;;;;;-148.56;100.00;61375.16;4936564;28;20031;-25
2022/08/11 04:06:01;;;;;;;0.25;0.20;;;;;;;-148.56;100.00;61375.16;4948230;28;20867;-27
2022/08/11 04:09:00;;;;;;;0.22;0.22;;;;;;;-148.56;100.00;61375.16;4941608;28;20026;-28
2022/08/11 04:11:41;;;;;;;0.50;0.40;;;;;;;-148.56;100.00;61375.16;4942272;28;20018;-26
2022/08/11 04:17:34;;;;;;;0.30;0.30;;;;;;;-148.56;100.00;61375.16;4940601;28;20181;-28
2022/08/11 04:20:37;;;;;;;0.47;0.33;;;;;;;-148.56;100.00;61375.16;4942931;28;20100;-24
2022/08/11 04:23:27;;;;;;;0.43;0.35;;;;;;;-148.56;100.00;61375.16;4939527;28;20018;-25
2022/08/11 04:26:11;;;;;;;0.70;0.40;;;;;;;-148.56;100.00;61375.16;4947247;28;20328;-28
2022/08/11 04:28:54;;;;;;;0.45;0.30;;;;;;;-148.56;100.00;61375.16;4936389;28;20026;-27
2022/08/11 04:31:50;;;;;;;0.65;0.40;;;;;;;-148.56;100.00;61375.16;4942061;28;20690;-28
2022/08/11 04:34:43;;;;;;;0.45;0.38;;;;;;;-148.56;100.00;61375.16;4939192;28;20054;-29
2022/08/11 04:37:33;;;;;;;0.32;0.30;;;;;;;-148.56;100.00;61375.16;4924593;28;20042;-31
2022/08/11 04:40:29;;;;;;;0.20;0.20;;;;;;;-148.56;100.00;61375.16;4942457;28;20132;-28
2022/08/11 04:43:29;;;;;;;0.88;0.30;;;;;;;-148.56;100.00;61375.16;4937500;28;20028;-28
2022/08/11 04:46:22;;;;;;;0.30;0.30;;;;;;;-148.56;100.00;61375.16;4943090;28;20027;-28
2022/08/11 05:01:41;;;;;;;0.40;0.40;;;;;;;-148.56;100.00;61375.16;4941208;28;20081;-30
2022/08/11 05:07:15;;;;;;;0.55;0.20;;;;;;;-148.56;100.00;61375.16;4949645;28;20112;-29
2022/08/11 05:09:43;;;;;;;0.20;0.20;;;;;;;-148.56;100.00;61375.16;4940454;28;20790;-29
2022/08/11 05:12:14;;;;;;;0.20;0.20;;;;;;;-148.56;100.00;61375.16;4943753;28;20026;-29
2022/08/11 05:37:18;;;;;;;0.30;0.30;;;;;;;-148.56;100.00;61375.16;4927740;28;20053;-29
2022/08/11 05:56:30;;;;;;;0.30;0.30;;;;;;;-148.56;100.00;61375.16;4940540;28;20069;-27
2022/08/11 05:58:56;;;;;;;0.20;0.20;;;;;;;-148.56;100.00;61375.16;4939154;28;20026;-31
2022/08/11 06:01:29;;;;;;;0.30;0.30;;;;;;;-148.56;100.00;61375.16;4937365;28;20030;-27
2022/08/11 06:04:15;;;;;;;0.20;0.20;;;;;;;-148.56;100.00;61375.16;4937608;28;20018;-27
2022/08/11 06:06:55;;;;;;;0.73;0.40;;;;;;;-148.56;100.00;61375.16;4939545;28;20773;-23
2022/08/11 06:09:32;;;;;;;0.20;0.20;;;;;;;-148.56;100.00;61375.16;4941941;28;20038;-26
2022/08/11 06:12:09;;;;;;;0.22;0.22;;;;;;;-148.56;100.00;61375.16;4939491;28;20026;-28
2022/08/11 06:14:41;;;;;;;0.65;0.40;;;;;;;-148.56;100.00;61375.16;4922825;28;20316;-28
2022/08/11 06:17:07;;;;;;;0.30;0.30;;;;;;;-148.56;100.00;61375.16;4937975;28;20651;-26
2022/08/11 06:19:45;;;;;;;0.35;0.30;;;;;;;-148.56;100.00;61375.16;4920063;28;20109;-30
2022/08/11 06:22:10;;;;;;;0.38;0.30;;;;;;;-148.56;100.00;61375.16;4938910;28;20042;-24
2022/08/11 06:24:44;;;;;;;0.20;0.20;;;;;;;-148.56;100.00;61375.16;4935490;28;20031;-28
2022/08/11 06:27:09;;;;;;;0.45;0.35;;;;;;;-148.56;100.00;61375.16;4930430;28;20169;-24
2022/08/11 06:29:40;;;;;;;0.40;0.40;;;;;;;-148.56;100.00;61375.16;4941108;28;20034;-26
2022/08/11 06:32:05;;;;;;;0.53;0.40;;;;;;;-148.56;100.00;61375.16;4939080;28;20061;-28
2022/08/11 06:34:50;;;;;;;0.40;0.32;;;;;;;-148.56;100.00;61375.16;4938111;28;20293;-26
2022/08/11 06:37:30;;;;;;;0.30;0.30;;;;;;;-148.56;100.00;61375.16;4938819;28;20042;-25
2022/08/11 06:40:09;;;;;;;1.02;0.57;;;;;;;-148.56;100.00;61375.16;4945950;28;20030;-28
2022/08/11 06:42:42;;;;;;;1.30;0.40;;;;;;;-148.56;100.00;61375.16;4939165;28;20061;-29
2022/08/11 06:45:20;;;;;;;0.22;0.22;;;;;;;-148.56;100.00;61375.16;4937826;28;20102;-28
2022/08/11 06:47:48;;;;;;;0.20;0.20;;;;;;;-148.56;100.00;61375.16;4939946;28;20030;-26
2022/08/11 06:53:04;;;;;;;0.30;0.30;;;;;;;-148.56;100.00;61375.16;4936296;28;20651;-26
2022/08/11 07:01:05;;;;;;;0.38;0.30;;;;;;;-148.56;100.00;61375.16;4923353;28;20053;-30
2022/08/11 07:03:32;;;;;;;0.30;0.30;;;;;;;-148.56;100.00;61375.16;4943268;28;20446;-27
2022/08/11 07:06:03;;;;;;;0.30;0.30;;;;;;;-148.56;100.00;61375.16;4933071;28;21741;-31
2022/08/11 07:28:54;;;;;;;0.35;0.35;;;;;;;-148.56;100.00;61375.16;4949216;28;20054;-31
2022/08/11 07:28:55;;;;;;;0.30;0.30;;;;;;;-148.56;100.00;61375.16;4932290;28;20045;-30
2022/08/11 07:31:25;;;;;;;0.35;0.35;;;;;;;-148.56;100.00;61375.16;4945541;28;20041;-26
2022/08/11 07:33:53;;;;;;;1.10;0.33;;;;;;;-148.56;100.00;61375.16;4943190;28;20259;-28
2022/08/11 07:36:19;;;;;;;0.30;0.30;;;;;;;-148.56;100.00;61375.16;4946334;28;21168;-30
2022/08/11 07:38:50;;;;;;;0.50;0.50;;;;;;;-148.56;100.00;61375.16;4945608;28;20041;-26
2022/08/11 07:41:20;;;;;;;0.40;0.40;;;;;;;-148.56;100.00;61375.16;4941926;28;20117;-27
2022/08/11 07:43:49;;;;;;;0.40;0.40;;;;;;;-148.56;100.00;61375.16;4943607;28;21091;-27
2022/08/11 07:54:27;;;;;;;0.40;0.40;;;;;;;-148.56;100.00;61375.16;4948745;28;20033;-29
2022/08/11 07:56:53;;;;;;;0.38;0.35;;;;;;;-148.56;100.00;61375.16;4946498;28;20553;-26
2022/08/11 08:18:28;;;;;;;0.57;0.40;;;;;;;-148.56;100.00;61375.16;4929415;28;20053;-29
2022/08/11 08:20:55;;;;;;;0.30;0.30;;;;;;;-148.56;100.00;61375.16;4927088;28;20140;-29
2022/08/11 08:23:31;;;;;;;0.35;0.35;;;;;;;-148.56;100.00;61375.16;4931469;28;20033;-28
2022/08/11 08:26:00;;;;;;;3.08;0.93;;;;;;;-148.56;100.00;61375.16;4946939;28;20168;-31
2022/08/11 08:28:25;;;;;;;1.40;1.15;;;;;;;-148.56;100.00;61375.16;4932024;28;20036;-29
2022/08/11 08:30:51;;;;;;;1.65;0.90;;;;;;;-148.56;100.00;61375.16;4945635;28;20034;-29
2022/08/11 08:33:24;;;;;;;1.15;0.52;;;;;;;-148.56;100.00;61375.16;4941589;28;20292;-28
2022/08/11 08:36:09;;;;;;;1.88;0.60;;;;;;;-148.56;100.00;61375.16;4949659;28;20289;-25
2022/08/11 08:38:45;;;;;;;1.63;0.63;;;;;;;-148.56;100.00;61375.16;4950694;28;20034;-28
2022/08/11 08:41:11;;;;;;;1.15;0.80;;;;;;;-148.56;100.00;61375.16;4949482;28;20088;-26
2022/08/11 08:43:36;;;;;;;1.40;0.80;;;;;;;-148.56;100.00;61375.16;4945946;28;20061;-30
2022/08/11 08:46:02;;;;;;;1.20;0.70;;;;;;;-148.56;100.00;61375.16;4945666;28;20026;-28
2022/08/11 08:48:27;;;;;;;0.60;0.50;;;;;;;-148.56;100.00;61375.16;4945812;28;20031;-28
2022/08/11 08:53:47;;;;;;;1.67;0.70;;;;;;;-148.56;100.00;61375.16;4942690;28;20688;-27
2022/08/11 08:56:13;;;;;;;2.22;0.60;;;;;;;-148.56;100.00;61375.16;4950029;28;20470;-25
2022/08/11 08:58:38;;;;;;;2.08;1.02;;;;;;;-148.56;100.00;61375.16;4933649;28;20034;-28
2022/08/11 09:01:03;;;;;;;2.83;0.82;;;;;;;-148.56;100.00;61375.16;4949059;28;20042;-28
2022/08/11 09:03:29;;;;;;;1.23;0.70;;;;;;;-148.56;100.00;61375.16;4948272;28;20030;-28
2022/08/11 09:05:55;;;;;;;0.55;0.50;;;;;;;-148.56;100.00;61375.16;4935804;28;20406;-31
2022/08/11 09:08:20;;;;;;;1.20;0.75;;;;;;;-148.56;100.00;61375.16;4932874;28;20719;-27
2022/08/11 09:10:46;;;;;;;1.15;0.65;;;;;;;-148.56;100.00;61375.16;4931310;28;20022;-32
2022/08/11 09:13:12;;;;;;;0.60;0.60;;;;;;;-148.56;100.00;61375.16;4936395;28;20045;-27
2022/08/11 09:15:38;;;;;;;0.90;0.70;;;;;;;-148.56;100.00;61375.16;4952516;28;20058;-29
2022/08/11 09:18:08;;;;;;;0.88;0.52;;;;;;;-148.56;100.00;61375.16;4933736;28;20701;-30
2022/08/11 09:20:34;;;;;;;0.50;0.50;;;;;;;-148.56;100.00;61375.16;4949060;28;20443;-28
2022/08/11 09:28:31;;;;;;;0.80;0.60;;;;;;;-148.56;100.00;61375.16;4951213;28;20045;-29
2022/08/11 09:30:59;;;;;;;0.70;0.63;;;;;;;-148.56;100.00;61375.16;4949121;28;20026;-32
2022/08/11 09:33:25;;;;;;;0.70;0.60;;;;;;;-148.56;100.00;61375.16;4928650;28;20073;-28
2022/08/11 09:35:51;;;;;;;0.82;0.50;;;;;;;-148.56;100.00;61375.16;4950287;28;20038;-31
2022/08/11 09:41:04;;;;;;;1.13;0.60;;;;;;;-148.56;100.00;61375.16;4949896;28;20342;-28
2022/08/11 09:46:14;;;;;;;0.85;0.60;;;;;;;-148.56;100.00;61375.16;4950399;28;20056;-30
2022/08/11 09:48:42;;;;;;;0.85;0.57;;;;;;;-148.56;100.00;61375.16;4950013;28;20038;-23
2022/08/11 09:51:07;;;;;;;4.25;0.50;;;;;;;-148.56;100.00;61375.16;4947955;28;20034;-30
2022/08/11 09:53:35;;;;;;;0.85;0.57;;;;;;;-148.56;100.00;61375.16;4946779;28;20777;-28
2022/08/11 09:58:12;;;;;;;0.40;0.40;;;;;;;-148.56;100.00;61375.16;4946021;28;20038;-28
2022/08/11 09:58:49;;;;;;;0.68;0.63;;;;;;;-148.56;100.00;61375.16;4950311;28;20035;-28
2022/08/11 10:01:25;;;;;;;0.40;0.40;;;;;;;-148.56;100.00;61375.16;4947546;28;20034;-28
2022/08/11 10:03:56;;;;;;;0.93;0.50;;;;;;;-148.56;100.00;61375.16;4946049;28;20055;-27
2022/08/11 10:09:05;;;;;;;0.65;0.40;;;;;;;-148.56;100.00;61375.16;4950493;28;20312;-28
2022/08/11 10:11:31;;;;;;;0.68;0.52;;;;;;;-148.56;100.00;61375.16;4945579;28;21054;-25
2022/08/11 10:16:41;;;;;;;0.68;0.50;;;;;;;-148.56;100.00;61375.16;4945073;28;20099;-27
2022/08/11 10:19:07;;;;;;;0.55;0.55;;;;;;;-148.56;100.00;61375.16;4948203;28;20630;-32
2022/08/11 10:21:38;;;;;;;0.50;0.50;;;;;;;-148.56;100.00;61375.16;4950850;28;20045;-29
2022/08/11 10:26:53;;;;;;;0.50;0.40;;;;;;;-148.56;100.00;61375.16;4948007;28;20045;-30
2022/08/11 10:35:15;;;;;;;0.40;0.40;;;;;;;-148.56;100.00;61375.16;4947340;28;20100;-29
2022/08/11 10:37:42;;;;;;;0.52;0.50;;;;;;;-148.56;100.00;61375.16;4946128;28;20619;-27
2022/08/11 10:40:09;;;;;;;0.43;0.40;;;;;;;-148.56;100.00;61375.16;4948278;28;20045;-28
2022/08/11 10:48:04;;;;;;;0.93;0.50;;;;;;;-148.56;100.00;61375.16;4951430;28;20096;-27
2022/08/11 10:58:59;;;;;;;0.52;0.52;;;;;;;-148.56;100.00;61375.16;4944086;28;20117;-28
2022/08/11 11:01:27;;;;;;;0.40;0.30;;;;;;;-148.56;100.00;61375.16;4947899;28;20084;-28
2022/08/11 11:04:01;;;;;;;0.45;0.45;;;;;;;-148.56;100.00;61375.16;4931097;28;21119;-27
2022/08/11 11:06:32;;;;;;;0.30;0.30;;;;;;;-148.56;100.00;61375.16;4942088;28;20350;-31
2022/08/11 11:09:06;;;;;;;0.45;0.45;;;;;;;-148.56;100.00;61375.16;4947759;28;20037;-28
2022/08/11 11:19:38;;;;;;;1.08;0.55;;;;;;;-148.56;100.00;61375.16;4942961;28;20881;-25
2022/08/11 11:22:36;;;;;;;0.40;0.40;;;;;;;-148.56;100.00;61375.16;4942253;28;20034;-28
2022/08/11 11:25:25;;;;;;;0.30;0.30;;;;;;;-148.56;100.00;61375.16;4944939;28;20228;-27
2022/08/11 11:27:56;;;;;;;;;;;;;;;-148.56;100.00;61375.16;4946888;28;20058;-27
2022/08/11 11:30:21;;;;;;;1.10;0.50;;;;;;;-148.56;100.00;61375.16;4947907;28;19917;-29
2022/08/11 11:33:10;;;;;;;0.82;0.65;;;;;;;-148.56;100.00;61375.16;4942454;28;20675;-30
2022/08/11 11:35:57;;;;;;;0.50;0.50;;;;;;;-148.56;100.00;61375.16;4947086;28;20041;-27
2022/08/11 11:38:23;;;;;;;0.35;0.30;;;;;;;-148.56;100.00;61375.16;4945124;28;20866;-29
2022/08/11 11:41:23;;;;;;;0.80;0.40;;;;;;;-148.56;100.00;61375.16;4948202;28;20034;-26
2022/08/11 11:43:34;;;;;;;0.35;0.35;;;;;;;-148.56;100.00;61375.16;4928579;28;20038;-28
2022/08/11 11:46:00;;;;;;;0.50;0.50;;;;;;;-148.56;100.00;61375.16;4946051;28;20094;-28
2022/08/11 11:48:27;;;;;;;0.47;0.35;;;;;;;-148.56;100.00;61375.16;4946512;28;20033;-30
2022/08/11 11:50:53;;;;;;;0.60;0.40;;;;;;;-148.56;100.00;61375.16;4949683;28;20030;-29
2022/08/11 11:53:19;;;;;;;0.73;0.60;;;;;;;-148.56;100.00;61375.16;4948562;28;20038;-29
2022/08/11 11:55:44;;;;;;;0.57;0.57;;;;;;;-148.56;100.00;61375.16;4949350;28;20027;-27
2022/08/11 12:03:38;;;;;;;0.40;0.40;;;;;;;-148.56;100.00;61375.16;4947768;28;20121;-27
2022/08/11 12:06:04;;;;;;;0.40;0.35;;;;;;;-148.56;100.00;61375.16;4945759;28;20064;-26
2022/08/11 12:08:29;;;;;;;0.50;0.50;;;;;;;-148.56;100.00;61375.16;4946831;28;20757;-27
2022/08/11 12:13:45;;;;;;;0.55;0.40;;;;;;;-148.56;100.00;61375.16;4937457;28;20224;-28
2022/08/11 12:16:12;;;;;;;0.40;0.30;;;;;;;-148.56;100.00;61375.16;4947683;28;20176;-29
2022/08/11 12:18:37;;;;;;;0.70;0.50;;;;;;;-148.56;100.00;61375.16;4946295;28;20047;-25
2022/08/11 12:21:03;;;;;;;0.40;0.40;;;;;;;-148.56;100.00;61375.16;4943830;28;20528;-28
2022/08/11 12:28:59;;;;;;;0.40;0.40;;;;;;;-148.56;100.00;61375.16;4949574;28;20037;-28
2022/08/11 12:31:25;;;;;;;0.40;0.40;;;;;;;-148.56;100.00;61375.16;4949748;28;20026;-25
2022/08/11 12:33:50;;;;;;;0.32;0.32;;;;;;;-148.56;100.00;61375.16;4949672;28;20034;-25
2022/08/11 12:36:16;;;;;;;0.40;0.40;;;;;;;-148.56;100.00;61375.16;4948613;28;20177;-27
2022/08/11 12:38:43;;;;;;;0.28;0.28;;;;;;;-148.56;100.00;61375.16;4954507;28;20100;-26
2022/08/11 12:46:39;;;;;;;0.38;0.38;;;;;;;-148.56;100.00;61375.16;4947696;28;20028;-27
2022/08/11 12:52:07;;;;;;;0.40;0.40;;;;;;;-148.56;100.00;61375.16;4953263;28;20036;-28
2022/08/11 12:54:51;;;;;;;;;;;;;;;-148.56;100.00;61375.16;4950911;28;20045;-29
2022/08/11 13:05:35;;;;;;;0.57;0.57;;;;;;;-148.56;100.00;61375.16;4948086;28;20046;-32
2022/08/11 13:08:01;;;;;;;0.40;0.40;;;;;;;-148.56;100.00;61375.16;4933422;28;20035;-26
2022/08/11 13:13:11;;;;;;;0.75;0.30;;;;;;;-148.56;100.00;61375.16;4951627;28;20036;-31
2022/08/11 13:15:36;;;;;;;0.63;0.30;;;;;;;-148.56;100.00;61375.16;4943451;28;20038;-29
2022/08/11 13:18:02;;;;;;;0.57;0.40;;;;;;;-148.56;100.00;61375.16;4934129;28;20488;-33
2022/08/11 13:20:27;;;;;;;0.40;0.40;;;;;;;-148.56;100.00;61375.16;4948853;28;20038;-29
2022/08/11 13:22:54;;;;;;;0.40;0.40;;;;;;;-148.56;100.00;61375.16;4950692;28;20026;-29
2022/08/11 13:25:23;;;;;;;0.40;0.40;;;;;;;-148.56;100.00;61375.16;4934014;28;20018;-32
2022/08/11 13:27:50;;;;;;;0.38;0.30;;;;;;;-148.56;100.00;61375.16;4939181;28;20145;-29
2022/08/11 13:33:00;;;;;;;0.43;0.38;;;;;;;-148.56;100.00;61375.16;4950653;28;20122;-30
2022/08/11 13:35:26;;;;;;;0.40;0.40;;;;;;;-148.56;100.00;61375.16;4950815;28;20034;-26
2022/08/11 13:37:51;;;;;;;0.35;0.35;;;;;;;-148.56;100.00;61375.16;4947245;28;20034;-28
2022/08/11 13:40:18;;;;;;;0.40;0.35;;;;;;;-148.56;100.00;61375.16;4948081;28;20030;-29
2022/08/11 13:42:44;;;;;;;0.38;0.38;;;;;;;-148.56;100.00;61375.16;4950592;28;20041;-30
2022/08/11 13:45:09;;;;;;;0.22;0.22;;;;;;;-148.56;100.00;61375.16;4931977;28;20042;-28
2022/08/11 13:47:35;;;;;;;0.40;0.30;;;;;;;-148.56;100.00;61375.16;4944122;28;20036;-29
2022/08/11 13:50:01;;;;;;;0.30;0.30;;;;;;;-148.56;100.00;61375.16;4949412;28;20030;-26
2022/08/11 13:52:29;;;;;;;0.70;0.60;;;;;;;-148.56;100.00;61375.16;4945576;28;20033;-29
2022/08/11 13:54:54;;;;;;;0.30;0.30;;;;;;;-148.56;100.00;61375.16;4954362;28;20792;-28
2022/08/11 13:57:20;;;;;;;0.40;0.40;;;;;;;-148.56;100.00;61375.16;4945567;28;20037;-26
2022/08/11 13:59:46;;;;;;;0.20;0.20;;;;;;;-148.56;100.00;61375.16;4946382;28;20049;-27
2022/08/11 14:02:13;;;;;;;1.10;0.47;;;;;;;-148.56;100.00;61375.16;4948044;28;20042;-29
2022/08/11 14:04:42;;;;;;;0.47;0.25;;;;;;;-148.56;100.00;61375.16;4949543;28;20821;-28
2022/08/11 14:07:09;;;;;;;0.38;0.38;;;;;;;-148.56;100.00;61375.16;4952789;28;20142;-25
2022/08/11 14:09:37;;;;;;;0.40;0.40;;;;;;;-148.56;100.00;61375.16;4929390;28;20104;-32
2022/08/11 14:15:19;;;;;;;0.30;0.30;;;;;;;-148.56;100.00;61375.16;4949113;28;21348;-24
2022/08/11 14:17:52;;;;;;;0.50;0.40;;;;;;;-148.56;100.00;61375.16;4948719;28;20030;-27
2022/08/11 14:20:18;;;;;;;0.38;0.25;;;;;;;-148.56;100.00;61375.16;4946606;28;20034;-32
2022/08/11 14:22:45;;;;;;;0.40;0.40;;;;;;;-148.56;100.00;61375.16;4947317;28;20686;-30
2022/08/11 14:25:13;;;;;;;0.20;0.20;;;;;;;-148.56;100.00;61375.16;4944429;28;20033;-27
2022/08/11 14:27:39;;;;;;;0.20;0.20;;;;;;;-148.56;100.00;61375.16;4948652;28;20589;-28
2022/08/11 14:30:53;;;;;;;0.40;0.40;;;;;;;-148.56;100.00;61375.16;4930936;28;20044;-32
2022/08/11 14:32:51;;;;;;;0.25;0.25;;;;;;;-148.56;100.00;61375.16;4939983;28;20033;-26
2022/08/11 14:35:16;;;;;;;0.30;0.30;;;;;;;-148.56;100.00;61375.16;4947632;28;20034;-29
2022/08/11 14:37:41;;;;;;;0.30;0.30;;;;;;;-148.56;100.00;61375.16;4928827;28;20043;-27
2022/08/11 14:47:03;;;;;;;0.63;0.40;;;;;;;-148.56;100.00;61375.16;4941229;28;20053;-26
2022/08/11 14:48:21;;;;;;;0.52;0.30;;;;;;;-148.56;100.00;61375.16;4946338;28;20046;-25
2022/08/11 14:50:46;;;;;;;0.20;0.20;;;;;;;-148.56;100.00;61375.16;4944436;28;20402;-30
2022/08/11 14:53:14;;;;;;;0.30;0.30;;;;;;;-148.56;100.00;61375.16;4944983;28;20034;-33
2022/08/11 14:58:26;;;;;;;0.30;0.30;;;;;;;-148.56;100.00;61375.16;4948082;28;20663;-32
2022/08/11 15:00:52;;;;;;;0.28;0.28;;;;;;;-148.56;100.00;61375.16;4945322;28;20056;-29
2022/08/11 15:03:18;;;;;;;0.30;0.30;;;;;;;-148.56;100.00;61375.16;4931957;28;20030;-30
2022/08/11 15:05:48;;;;;;;0.30;0.30;;;;;;;-148.56;100.00;61375.16;4949310;28;21239;-31
2022/08/11 15:08:13;;;;;;;0.30;0.30;;;;;;;-148.56;100.00;61375.16;4950439;28;20030;-32
2022/08/11 15:10:39;;;;;;;0.30;0.30;;;;;;;-148.56;100.00;61375.16;4931174;28;20421;-26
2022/08/11 15:13:04;;;;;;;0.32;0.30;;;;;;;-148.56;100.00;61375.16;4950373;28;20058;-31
2022/08/11 15:18:15;;;;;;;0.45;0.25;;;;;;;-148.56;100.00;61375.16;4947690;28;20045;-29
2022/08/11 15:26:14;;;;;;;0.32;0.30;;;;;;;-148.56;100.00;61375.16;4950466;28;20445;-27
2022/08/11 15:45:50;;;;;;;0.38;0.20;;;;;;;-148.56;100.00;61375.16;4948455;28;20796;-28
2022/08/11 15:48:20;;;;;;;0.20;0.20;;;;;;;-148.56;100.00;61375.16;4941172;28;20030;-26
2022/08/11 15:50:49;;;;;;;0.45;0.35;;;;;;;-148.56;100.00;61375.16;4946603;28;20085;-28
2022/08/11 15:53:42;;;;;;;0.30;0.30;;;;;;;-148.56;100.00;61375.16;4930344;28;20406;-25
2022/08/11 15:56:08;;;;;;;0.20;0.20;;;;;;;-148.56;100.00;61375.16;4944428;28;20043;-24
2022/08/11 16:04:11;;;;;;;0.30;0.30;;;;;;;-148.56;100.00;61375.16;4948017;28;20205;-31